sensor_id;sensor_type;location;lat;lon;timestamp;pressure;altitude;pressure_sealevel;temperature;humidity
59055;BME280;44845;51.444;7.460;2023-09-07T00:00:34;100199.84;;;17.76;84.82
59055;BME280;44845;51.444;7.460;2023-09-07T00:02:59;100208.03;;;17.70;85.93
59055;BME280;44845;51.444;7.460;2023-09-07T00:05:25;100204.34;;;17.74;85.41
59055;BME280;44845;51.444;7.460;2023-09-07T00:07:50;100203.84;;;17.61;85.78
59055;BME280;44845;51.444;7.460;2023-09-07T00:10:15;100201.72;;;17.72;85.16
59055;BME280;44845;51.444;7.460;2023-09-07T00:12:43;100204.66;;;17.63;85.33
59055;BME280;44845;51.444;7.460;2023-09-07T00:15:09;100200.34;;;17.60;84.71
59055;BME280;44845;51.444;7.460;2023-09-07T00:17:35;100202.97;;;17.60;84.32
59055;BME280;44845;51.444;7.460;2023-09-07T00:20:01;100200.47;;;17.57;84.66
59055;BME280;44845;51.444;7.460;2023-09-07T00:22:37;100198.78;;;17.53;84.84
59055;BME280;44845;51.444;7.460;2023-09-07T00:25:03;100197.25;;;17.45;85.07
59055;BME280;44845;51.444;7.460;2023-09-07T00:27:29;100193.88;;;17.40;85.44
59055;BME280;44845;51.444;7.460;2023-09-07T00:29:55;100199.19;;;17.40;85.32
59055;BME280;44845;51.444;7.460;2023-09-07T00:32:20;100195.63;;;17.41;85.50
59055;BME280;44845;51.444;7.460;2023-09-07T00:34:46;100196.72;;;17.34;86.09
59055;BME280;44845;51.444;7.460;2023-09-07T00:37:11;100193.25;;;17.32;85.98
59055;BME280;44845;51.444;7.460;2023-09-07T00:39:37;100196.88;;;17.29;85.75
59055;BME280;44845;51.444;7.460;2023-09-07T00:42:03;100195.03;;;17.31;85.93
59055;BME280;44845;51.444;7.460;2023-09-07T00:44:28;100195.09;;;17.30;85.89
59055;BME280;44845;51.444;7.460;2023-09-07T00:46:53;100194.38;;;17.25;86.37
59055;BME280;44845;51.444;7.460;2023-09-07T00:49:19;100201.50;;;17.22;86.27
59055;BME280;44845;51.444;7.460;2023-09-07T00:51:44;100193.53;;;17.22;86.42
59055;BME280;44845;51.444;7.460;2023-09-07T00:54:10;100195.38;;;17.20;86.23
59055;BME280;44845;51.444;7.460;2023-09-07T00:56:36;100200.72;;;17.19;85.74
59055;BME280;44845;51.444;7.460;2023-09-07T00:59:02;100200.00;;;17.12;85.94
59055;BME280;44845;51.444;7.460;2023-09-07T01:01:27;100194.69;;;17.12;86.31
59055;BME280;44845;51.444;7.460;2023-09-07T01:03:54;100191.22;;;17.10;86.77
59055;BME280;44845;51.444;7.460;2023-09-07T01:07:13;100189.47;;;17.09;86.39
59055;BME280;44845;51.444;7.460;2023-09-07T01:09:19;100185.06;;;17.09;86.08
59055;BME280;44845;51.444;7.460;2023-09-07T01:11:47;100187.75;;;17.08;86.42
59055;BME280;44845;51.444;7.460;2023-09-07T01:14:13;100179.91;;;17.05;86.54
59055;BME280;44845;51.444;7.460;2023-09-07T01:16:38;100181.72;;;17.03;86.56
59055;BME280;44845;51.444;7.460;2023-09-07T01:19:06;100171.16;;;17.01;86.85
59055;BME280;44845;51.444;7.460;2023-09-07T01:21:36;100174.81;;;16.97;86.97
59055;BME280;44845;51.444;7.460;2023-09-07T01:24:03;100170.41;;;16.97;87.14
59055;BME280;44845;51.444;7.460;2023-09-07T01:26:29;100164.16;;;17.00;87.14
59055;BME280;44845;51.444;7.460;2023-09-07T01:28:55;100170.47;;;16.94;87.19
59055;BME280;44845;51.444;7.460;2023-09-07T01:31:21;100159.13;;;16.91;87.53
59055;BME280;44845;51.444;7.460;2023-09-07T01:33:46;100167.16;;;16.87;88.07
59055;BME280;44845;51.444;7.460;2023-09-07T01:36:12;100161.03;;;16.85;88.12
59055;BME280;44845;51.444;7.460;2023-09-07T01:38:37;100164.59;;;16.84;87.94
59055;BME280;44845;51.444;7.460;2023-09-07T01:41:03;100165.38;;;16.88;87.98
59055;BME280;44845;51.444;7.460;2023-09-07T01:43:28;100162.59;;;16.93;87.53
59055;BME280;44845;51.444;7.460;2023-09-07T01:45:53;100158.34;;;16.87;87.18
59055;BME280;44845;51.444;7.460;2023-09-07T01:48:19;100163.84;;;16.79;87.27
59055;BME280;44845;51.444;7.460;2023-09-07T01:50:44;100163.91;;;16.77;87.79
59055;BME280;44845;51.444;7.460;2023-09-07T01:53:09;100165.72;;;16.75;87.56
59055;BME280;44845;51.444;7.460;2023-09-07T01:55:35;100162.00;;;16.81;87.37
59055;BME280;44845;51.444;7.460;2023-09-07T01:58:00;100160.25;;;16.82;87.46
59055;BME280;44845;51.444;7.460;2023-09-07T02:03:44;100164.09;;;16.71;87.65
59055;BME280;44845;51.444;7.460;2023-09-07T02:06:10;100157.91;;;16.71;87.54
59055;BME280;44845;51.444;7.460;2023-09-07T02:08:35;100167.56;;;16.73;87.86
59055;BME280;44845;51.444;7.460;2023-09-07T02:11:00;100159.63;;;16.73;87.85
59055;BME280;44845;51.444;7.460;2023-09-07T02:13:26;100163.97;;;16.74;87.69
59055;BME280;44845;51.444;7.460;2023-09-07T02:15:51;100163.09;;;16.74;87.92
59055;BME280;44845;51.444;7.460;2023-09-07T02:18:17;100154.31;;;16.73;87.54
59055;BME280;44845;51.444;7.460;2023-09-07T02:20:42;100161.34;;;16.74;87.41
59055;BME280;44845;51.444;7.460;2023-09-07T02:23:07;100157.88;;;16.72;87.67
59055;BME280;44845;51.444;7.460;2023-09-07T02:25:33;100165.13;;;16.65;88.00
59055;BME280;44845;51.444;7.460;2023-09-07T02:27:59;100165.19;;;16.62;87.84
59055;BME280;44845;51.444;7.460;2023-09-07T02:30:25;100160.03;;;16.58;88.17
59055;BME280;44845;51.444;7.460;2023-09-07T02:32:50;100159.13;;;16.59;87.80
59055;BME280;44845;51.444;7.460;2023-09-07T02:35:16;100153.06;;;16.55;88.52
59055;BME280;44845;51.444;7.460;2023-09-07T02:37:41;100155.63;;;16.58;88.54
59055;BME280;44845;51.444;7.460;2023-09-07T02:40:07;100158.25;;;16.58;87.98
59055;BME280;44845;51.444;7.460;2023-09-07T02:42:35;100155.75;;;16.53;88.35
59055;BME280;44845;51.444;7.460;2023-09-07T02:45:00;100157.56;;;16.51;88.17
59055;BME280;44845;51.444;7.460;2023-09-07T02:47:25;100147.22;;;16.42;88.90
59055;BME280;44845;51.444;7.460;2023-09-07T02:49:51;100156.16;;;16.38;88.77
59055;BME280;44845;51.444;7.460;2023-09-07T02:52:16;100145.50;;;16.41;88.69
59055;BME280;44845;51.444;7.460;2023-09-07T02:54:42;100155.13;;;16.43;88.58
59055;BME280;44845;51.444;7.460;2023-09-07T02:57:07;100147.22;;;16.42;88.50
59055;BME280;44845;51.444;7.460;2023-09-07T02:59:32;100145.50;;;16.41;88.14
59055;BME280;44845;51.444;7.460;2023-09-07T03:01:58;100145.56;;;16.38;88.36
59055;BME280;44845;51.444;7.460;2023-09-07T03:04:23;100150.88;;;16.38;87.98
59055;BME280;44845;51.444;7.460;2023-09-07T03:06:48;100149.03;;;16.40;88.06
59055;BME280;44845;51.444;7.460;2023-09-07T03:09:14;100146.50;;;16.37;88.59
59055;BME280;44845;51.444;7.460;2023-09-07T03:11:39;100151.06;;;16.31;88.77
59055;BME280;44845;51.444;7.460;2023-09-07T03:14:04;100156.22;;;16.36;88.63
59055;BME280;44845;51.444;7.460;2023-09-07T03:16:30;100147.59;;;16.29;89.18
59055;BME280;44845;51.444;7.460;2023-09-07T03:18:56;100145.88;;;16.27;89.07
59055;BME280;44845;51.444;7.460;2023-09-07T03:21:21;100144.09;;;16.27;89.32
59055;BME280;44845;51.444;7.460;2023-09-07T03:23:50;100151.06;;;16.30;89.00
59055;BME280;44845;51.444;7.460;2023-09-07T03:26:17;100152.13;;;16.24;89.29
59055;BME280;44845;51.444;7.460;2023-09-07T03:28:42;100146.78;;;16.26;89.22
59055;BME280;44845;51.444;7.460;2023-09-07T03:31:07;100152.16;;;16.23;89.12
59055;BME280;44845;51.444;7.460;2023-09-07T03:33:33;100156.88;;;16.11;89.34
59055;BME280;44845;51.444;7.460;2023-09-07T03:35:58;100148.84;;;16.14;89.50
59055;BME280;44845;51.444;7.460;2023-09-07T03:38:24;100138.22;;;16.16;89.14
59055;BME280;44845;51.444;7.460;2023-09-07T03:40:49;100147.19;;;16.10;89.09
59055;BME280;44845;51.444;7.460;2023-09-07T03:43:15;100145.53;;;16.06;89.15
59055;BME280;44845;51.444;7.460;2023-09-07T03:45:40;100145.28;;;16.15;88.97
59055;BME280;44845;51.444;7.460;2023-09-07T03:48:06;100147.22;;;16.08;89.15
59055;BME280;44845;51.444;7.460;2023-09-07T03:50:31;100153.28;;;16.14;88.83
59055;BME280;44845;51.444;7.460;2023-09-07T03:52:57;100152.44;;;16.12;88.49
59055;BME280;44845;51.444;7.460;2023-09-07T03:55:22;100154.22;;;16.11;88.37
59055;BME280;44845;51.444;7.460;2023-09-07T03:57:47;100147.09;;;16.15;88.31
59055;BME280;44845;51.444;7.460;2023-09-07T04:00:13;100146.22;;;16.13;87.99
59055;BME280;44845;51.444;7.460;2023-09-07T04:02:39;100148.16;;;16.07;88.32
59055;BME280;44845;51.444;7.460;2023-09-07T04:05:05;100149.13;;;16.02;88.10
59055;BME280;44845;51.444;7.460;2023-09-07T04:07:31;100151.69;;;16.06;88.25
59055;BME280;44845;51.444;7.460;2023-09-07T04:09:58;100155.31;;;16.02;88.08
59055;BME280;44845;51.444;7.460;2023-09-07T04:12:23;100155.31;;;16.02;88.19
59055;BME280;44845;51.444;7.460;2023-09-07T04:14:49;100145.75;;;15.96;88.44
59055;BME280;44845;51.444;7.460;2023-09-07T04:17:14;100151.97;;;15.94;88.51
59055;BME280;44845;51.444;7.460;2023-09-07T04:19:39;100152.78;;;15.97;88.27
59055;BME280;44845;51.444;7.460;2023-09-07T04:22:05;100151.03;;;15.96;88.60
59055;BME280;44845;51.444;7.460;2023-09-07T04:24:30;100150.13;;;15.97;88.14
59055;BME280;44845;51.444;7.460;2023-09-07T04:26:59;100163.50;;;15.91;88.45
59055;BME280;44845;51.444;7.460;2023-09-07T04:29:26;100155.63;;;15.90;89.04
59055;BME280;44845;51.444;7.460;2023-09-07T04:31:51;100155.50;;;15.93;88.73
59055;BME280;44845;51.444;7.460;2023-09-07T04:34:17;100155.69;;;15.86;88.50
59055;BME280;44845;51.444;7.460;2023-09-07T04:36:42;100158.50;;;15.79;89.23
59055;BME280;44845;51.444;7.460;2023-09-07T04:39:08;100156.63;;;15.84;89.50
59055;BME280;44845;51.444;7.460;2023-09-07T04:41:33;100157.44;;;15.87;89.05
59055;BME280;44845;51.444;7.460;2023-09-07T04:43:58;100160.28;;;15.78;88.99
59055;BME280;44845;51.444;7.460;2023-09-07T04:46:24;100156.81;;;15.76;89.09
59055;BME280;44845;51.444;7.460;2023-09-07T04:48:49;100157.63;;;15.78;88.91
59055;BME280;44845;51.444;7.460;2023-09-07T04:51:15;100157.75;;;15.75;89.23
59055;BME280;44845;51.444;7.460;2023-09-07T04:53:40;100159.56;;;15.73;89.04
59055;BME280;44845;51.444;7.460;2023-09-07T04:56:07;100162.19;;;15.73;89.19
59055;BME280;44845;51.444;7.460;2023-09-07T04:58:33;100162.94;;;15.78;88.45
59055;BME280;44845;51.444;7.460;2023-09-07T05:01:06;100157.75;;;15.75;88.72
59055;BME280;44845;51.444;7.460;2023-09-07T05:03:34;100153.34;;;15.74;89.01
59055;BME280;44845;51.444;7.460;2023-09-07T05:06:00;100153.28;;;15.77;89.21
59055;BME280;44845;51.444;7.460;2023-09-07T05:08:25;100154.09;;;15.79;88.75
59055;BME280;44845;51.444;7.460;2023-09-07T05:11:17;100151.28;;;15.85;88.13
59055;BME280;44845;51.444;7.460;2023-09-07T05:13:42;100151.41;;;15.81;88.32
59055;BME280;44845;51.444;7.460;2023-09-07T05:16:08;100156.56;;;15.85;88.37
59055;BME280;44845;51.444;7.460;2023-09-07T05:18:33;100153.09;;;15.83;88.49
59055;BME280;44845;51.444;7.460;2023-09-07T05:20:58;100153.94;;;15.85;88.29
59055;BME280;44845;51.444;7.460;2023-09-07T05:23:24;100161.03;;;15.83;88.19
59055;BME280;44845;51.444;7.460;2023-09-07T05:25:52;100162.78;;;15.84;88.14
59055;BME280;44845;51.444;7.460;2023-09-07T05:28:19;100154.03;;;15.82;88.05
59055;BME280;44845;51.444;7.460;2023-09-07T05:30:44;100163.63;;;15.86;87.91
59055;BME280;44845;51.444;7.460;2023-09-07T05:33:10;100160.03;;;15.89;87.94
59055;BME280;44845;51.444;7.460;2023-09-07T05:35:36;100158.22;;;15.91;88.17
59055;BME280;44845;51.444;7.460;2023-09-07T05:38:03;100160.72;;;15.97;88.13
59055;BME280;44845;51.444;7.460;2023-09-07T05:40:28;100158.84;;;16.01;88.06
59055;BME280;44845;51.444;7.460;2023-09-07T05:42:54;100156.94;;;16.08;87.65
59055;BME280;44845;51.444;7.460;2023-09-07T05:45:19;100164.75;;;16.13;87.47
59055;BME280;44845;51.444;7.460;2023-09-07T05:47:45;100170.03;;;16.13;86.77
59055;BME280;44845;51.444;7.460;2023-09-07T05:50:10;100156.91;;;16.09;87.72
59055;BME280;44845;51.444;7.460;2023-09-07T05:52:36;100164.72;;;16.14;87.96
59055;BME280;44845;51.444;7.460;2023-09-07T05:55:01;100163.78;;;16.17;88.25
59055;BME280;44845;51.444;7.460;2023-09-07T05:57:27;100165.56;;;16.16;88.21
59055;BME280;44845;51.444;7.460;2023-09-07T05:59:53;100165.44;;;16.21;87.68
59055;BME280;44845;51.444;7.460;2023-09-07T06:02:18;100165.50;;;16.18;87.50
59055;BME280;44845;51.444;7.460;2023-09-07T06:04:43;100168.81;;;16.26;87.69
59055;BME280;44845;51.444;7.460;2023-09-07T06:07:09;100168.81;;;16.26;88.40
59055;BME280;44845;51.444;7.460;2023-09-07T06:09:34;100168.75;;;16.29;88.91
59055;BME280;44845;51.444;7.460;2023-09-07T06:12:01;100168.75;;;16.29;89.38
59055;BME280;44845;51.444;7.460;2023-09-07T06:14:28;100159.97;;;16.27;89.53
59055;BME280;44845;51.444;7.460;2023-09-07T06:16:53;100168.81;;;16.26;89.99
59055;BME280;44845;51.444;7.460;2023-09-07T06:19:18;100168.75;;;16.29;89.91
59055;BME280;44845;51.444;7.460;2023-09-07T06:21:45;100168.75;;;16.29;89.98
59055;BME280;44845;51.444;7.460;2023-09-07T06:24:10;100164.19;;;16.35;90.16
59055;BME280;44845;51.444;7.460;2023-09-07T06:26:35;100164.16;;;16.36;90.34
59055;BME280;44845;51.444;7.460;2023-09-07T06:29:01;100166.75;;;16.38;90.43
59055;BME280;44845;51.444;7.460;2023-09-07T06:31:26;100165.09;;;16.34;91.05
59055;BME280;44845;51.444;7.460;2023-09-07T06:33:51;100169.31;;;16.41;90.71
59055;BME280;44845;51.444;7.460;2023-09-07T06:36:17;100178.03;;;16.44;90.87
59055;BME280;44845;51.444;7.460;2023-09-07T06:38:42;100177.19;;;16.44;91.17
59055;BME280;44845;51.444;7.460;2023-09-07T06:41:07;100182.47;;;16.44;91.13
59055;BME280;44845;51.444;7.460;2023-09-07T06:43:34;100179.72;;;16.47;90.92
59055;BME280;44845;51.444;7.460;2023-09-07T06:46:06;100186.59;;;16.54;91.02
59055;BME280;44845;51.444;7.460;2023-09-07T06:48:33;100187.50;;;16.53;91.43
59055;BME280;44845;51.444;7.460;2023-09-07T06:51:05;100183.78;;;16.61;91.72
59055;BME280;44845;51.444;7.460;2023-09-07T06:53:31;100184.59;;;16.63;91.52
59055;BME280;44845;51.444;7.460;2023-09-07T06:56:01;100189.78;;;16.68;91.61
59055;BME280;44845;51.444;7.460;2023-09-07T06:58:27;100190.56;;;16.71;90.48
59055;BME280;44845;51.444;7.460;2023-09-07T07:00:52;100198.28;;;16.79;91.20
59055;BME280;44845;51.444;7.460;2023-09-07T07:03:18;100201.75;;;16.81;91.90
59055;BME280;44845;51.444;7.460;2023-09-07T07:05:43;100194.44;;;16.89;92.24
59055;BME280;44845;51.444;7.460;2023-09-07T07:08:09;100199.63;;;16.94;92.84
59055;BME280;44845;51.444;7.460;2023-09-07T07:10:35;100188.94;;;16.97;92.71
59055;BME280;44845;51.444;7.460;2023-09-07T07:13:00;100193.28;;;17.00;93.12
59055;BME280;44845;51.444;7.460;2023-09-07T07:15:25;100194.09;;;17.02;93.61
59055;BME280;44845;51.444;7.460;2023-09-07T07:17:51;100193.97;;;17.07;93.61
59055;BME280;44845;51.444;7.460;2023-09-07T07:20:16;100199.06;;;17.13;93.78
59055;BME280;44845;51.444;7.460;2023-09-07T07:22:41;100210.44;;;17.18;94.31
59055;BME280;44845;51.444;7.460;2023-09-07T07:25:07;100208.75;;;17.14;94.14
59055;BME280;44845;51.444;7.460;2023-09-07T07:27:32;100212.09;;;17.22;92.23
59055;BME280;44845;51.444;7.460;2023-09-07T07:29:58;100217.19;;;17.29;92.79
59055;BME280;44845;51.444;7.460;2023-09-07T07:32:24;100209.09;;;17.33;93.08
59055;BME280;44845;51.444;7.460;2023-09-07T07:34:50;100214.22;;;17.40;91.20
59055;BME280;44845;51.444;7.460;2023-09-07T07:37:15;100207.78;;;17.49;91.96
59055;BME280;44845;51.444;7.460;2023-09-07T07:39:40;100202.25;;;17.55;92.92
59055;BME280;44845;51.444;7.460;2023-09-07T07:42:06;100202.09;;;17.61;93.78
59055;BME280;44845;51.444;7.460;2023-09-07T07:44:31;100202.75;;;17.68;93.50
59055;BME280;44845;51.444;7.460;2023-09-07T08:14:17;100210.06;;;18.43;87.28
59055;BME280;44845;51.444;7.460;2023-09-07T08:16:42;100195.66;;;18.50;86.71
59055;BME280;44845;51.444;7.460;2023-09-07T08:19:07;100201.50;;;18.60;84.53
59055;BME280;44845;51.444;7.460;2023-09-07T08:21:33;100206.19;;;18.77;82.25
59055;BME280;44845;51.444;7.460;2023-09-07T08:23:58;100206.75;;;18.86;81.16
59055;BME280;44845;51.444;7.460;2023-09-07T08:26:25;100212.03;;;19.11;80.68
59055;BME280;44845;51.444;7.460;2023-09-07T08:28:50;100203.28;;;19.08;80.52
59055;BME280;44845;51.444;7.460;2023-09-07T08:31:16;100204.94;;;19.12;78.96
59055;BME280;44845;51.444;7.460;2023-09-07T08:33:48;100199.38;;;19.42;75.04
59055;BME280;44845;51.444;7.460;2023-09-07T08:36:16;100201.34;;;19.37;77.46
59055;BME280;44845;51.444;7.460;2023-09-07T08:38:42;100200.53;;;19.35;76.87
59055;BME280;44845;51.444;7.460;2023-09-07T08:41:08;100197.88;;;19.35;75.83
59055;BME280;44845;51.444;7.460;2023-09-07T08:43:35;100197.69;;;19.40;75.85
59055;BME280;44845;51.444;7.460;2023-09-07T08:46:18;100205.94;;;19.56;73.55
59055;BME280;44845;51.444;7.460;2023-09-07T08:48:46;100203.81;;;19.64;73.43
59055;BME280;44845;51.444;7.460;2023-09-07T08:51:12;100214.09;;;19.74;70.93
59055;BME280;44845;51.444;7.460;2023-09-07T08:53:40;100201.47;;;19.79;71.71
59055;BME280;44845;51.444;7.460;2023-09-07T08:56:06;100196.19;;;20.00;70.06
59055;BME280;44845;51.444;7.460;2023-09-07T08:58:35;100195.81;;;20.09;69.77
59055;BME280;44845;51.444;7.460;2023-09-07T09:01:01;100192.72;;;19.98;71.23
59055;BME280;44845;51.444;7.460;2023-09-07T09:03:29;100200.44;;;20.04;72.01
59055;BME280;44845;51.444;7.460;2023-09-07T09:05:56;100200.22;;;19.88;76.15
59055;BME280;44845;51.444;7.460;2023-09-07T09:08:21;100197.97;;;19.99;74.56
59055;BME280;44845;51.444;7.460;2023-09-07T09:10:58;100205.47;;;19.89;73.76
59055;BME280;44845;51.444;7.460;2023-09-07T09:13:32;100198.44;;;19.88;72.61
59055;BME280;44845;51.444;7.460;2023-09-07T09:16:01;100196.88;;;20.05;74.53
59055;BME280;44845;51.444;7.460;2023-09-07T09:18:27;100190.38;;;20.12;73.47
59055;BME280;44845;51.444;7.460;2023-09-07T09:20:53;100198.22;;;20.16;72.86
59055;BME280;44845;51.444;7.460;2023-09-07T09:23:19;100193.81;;;20.35;70.30
59055;BME280;44845;51.444;7.460;2023-09-07T09:25:45;100194.81;;;20.33;69.86
59055;BME280;44845;51.444;7.460;2023-09-07T09:28:10;100192.78;;;20.40;70.25
59055;BME280;44845;51.444;7.460;2023-09-07T09:30:37;100202.56;;;20.39;70.93
59055;BME280;44845;51.444;7.460;2023-09-07T09:33:02;100194.91;;;20.31;70.03
59055;BME280;44845;51.444;7.460;2023-09-07T09:35:30;100197.31;;;20.38;69.82
59055;BME280;44845;51.444;7.460;2023-09-07T09:38:00;100194.91;;;20.31;71.82
59055;BME280;44845;51.444;7.460;2023-09-07T09:40:35;100192.00;;;20.38;71.46
59055;BME280;44845;51.444;7.460;2023-09-07T09:43:02;100190.03;;;20.41;70.45
59055;BME280;44845;51.444;7.460;2023-09-07T09:45:28;100194.69;;;20.36;71.25
59055;BME280;44845;51.444;7.460;2023-09-07T09:47:54;100180.59;;;20.34;71.38
59055;BME280;44845;51.444;7.460;2023-09-07T09:50:22;100180.25;;;20.42;70.90
59055;BME280;44845;51.444;7.460;2023-09-07T09:52:48;100174.03;;;20.62;69.31
59055;BME280;44845;51.444;7.460;2023-09-07T09:55:13;100171.47;;;20.80;67.27
59055;BME280;44845;51.444;7.460;2023-09-07T09:57:40;100166.66;;;20.69;68.25
59055;BME280;44845;51.444;7.460;2023-09-07T10:00:06;100165.13;;;21.03;66.51
59055;BME280;44845;51.444;7.460;2023-09-07T10:03:01;100162.00;;;21.13;65.89
59055;BME280;44845;51.444;7.460;2023-09-07T10:05:28;100160.56;;;21.06;66.40
59055;BME280;44845;51.444;7.460;2023-09-07T10:08:00;100164.31;;;21.01;67.28
59055;BME280;44845;51.444;7.460;2023-09-07T10:10:33;100161.69;;;21.00;67.64
59055;BME280;44845;51.444;7.460;2023-09-07T10:13:00;100157.91;;;21.06;66.79
59055;BME280;44845;51.444;7.460;2023-09-07T10:15:26;100153.50;;;21.04;66.21
59055;BME280;44845;51.444;7.460;2023-09-07T10:21:06;100151.13;;;21.55;64.57
59055;BME280;44845;51.444;7.460;2023-09-07T10:23:44;100152.84;;;21.56;64.30
59055;BME280;44845;51.444;7.460;2023-09-07T10:26:14;100149.34;;;21.55;65.43
59055;BME280;44845;51.444;7.460;2023-09-07T10:28:41;100149.94;;;21.60;65.25
59055;BME280;44845;51.444;7.460;2023-09-07T10:31:15;100153.25;;;21.66;64.04
59055;BME280;44845;51.444;7.460;2023-09-07T10:33:40;100153.53;;;21.42;66.83
59055;BME280;44845;51.444;7.460;2023-09-07T10:36:06;100152.41;;;21.65;65.33
59055;BME280;44845;51.444;7.460;2023-09-07T10:38:33;100149.84;;;21.44;66.94
59055;BME280;44845;51.444;7.460;2023-09-07T10:41:01;100145.09;;;21.69;64.64
59055;BME280;44845;51.444;7.460;2023-09-07T10:43:31;100140.16;;;21.61;65.10
59055;BME280;44845;51.444;7.460;2023-09-07T10:45:58;100143.13;;;21.55;65.07
59055;BME280;44845;51.444;7.460;2023-09-07T10:48:25;100148.19;;;21.79;64.50
59055;BME280;44845;51.444;7.460;2023-09-07T10:50:50;100144.06;;;22.09;63.49
59055;BME280;44845;51.444;7.460;2023-09-07T10:53:25;100139.00;;;22.02;63.45
59055;BME280;44845;51.444;7.460;2023-09-07T10:55:52;100138.50;;;22.30;62.62
59055;BME280;44845;51.444;7.460;2023-09-07T10:58:47;100133.97;;;22.32;63.28
59055;BME280;44845;51.444;7.460;2023-09-07T11:01:16;100140.81;;;22.20;64.64
59055;BME280;44845;51.444;7.460;2023-09-07T11:03:41;100131.31;;;22.14;63.29
59055;BME280;44845;51.444;7.460;2023-09-07T11:08:35;100121.31;;;22.35;62.44
59055;BME280;44845;51.444;7.460;2023-09-07T11:11:04;100121.22;;;22.37;61.97
59055;BME280;44845;51.444;7.460;2023-09-07T11:13:30;100111.25;;;22.41;62.94
59055;BME280;44845;51.444;7.460;2023-09-07T11:15:57;100109.56;;;22.22;63.36
59055;BME280;44845;51.444;7.460;2023-09-07T11:18:23;100118.69;;;22.00;65.58
59055;BME280;44845;51.444;7.460;2023-09-07T11:20:49;100116.06;;;22.34;64.22
59055;BME280;44845;51.444;7.460;2023-09-07T11:23:19;100111.09;;;22.44;62.78
59055;BME280;44845;51.444;7.460;2023-09-07T11:25:47;100111.56;;;22.34;64.00
59055;BME280;44845;51.444;7.460;2023-09-07T11:28:12;100105.91;;;22.41;63.44
59055;BME280;44845;51.444;7.460;2023-09-07T11:30:48;100109.84;;;22.33;63.70
59055;BME280;44845;51.444;7.460;2023-09-07T11:33:15;100115.34;;;22.30;64.28
59055;BME280;44845;51.444;7.460;2023-09-07T11:35:41;100108.81;;;22.36;65.29
59055;BME280;44845;51.444;7.460;2023-09-07T11:38:06;100108.88;;;22.34;64.73
59055;BME280;44845;51.444;7.460;2023-09-07T11:40:35;100105.91;;;22.57;64.56
59055;BME280;44845;51.444;7.460;2023-09-07T11:43:00;100105.31;;;22.86;63.10
59055;BME280;44845;51.444;7.460;2023-09-07T11:45:26;100104.25;;;23.04;62.44
59055;BME280;44845;51.444;7.460;2023-09-07T11:47:51;100105.97;;;22.89;61.77
59055;BME280;44845;51.444;7.460;2023-09-07T11:50:17;100099.88;;;22.87;61.75
59055;BME280;44845;51.444;7.460;2023-09-07T11:52:43;100103.84;;;22.62;63.26
59055;BME280;44845;51.444;7.460;2023-09-07T11:55:08;100097.00;;;22.74;63.68
59055;BME280;44845;51.444;7.460;2023-09-07T11:57:36;100092.66;;;22.55;63.33
59055;BME280;44845;51.444;7.460;2023-09-07T12:00:01;100087.97;;;22.93;62.20
59055;BME280;44845;51.444;7.460;2023-09-07T12:02:27;100082.69;;;23.24;58.93
59055;BME280;44845;51.444;7.460;2023-09-07T12:04:53;100092.97;;;23.62;58.75
59055;BME280;44845;51.444;7.460;2023-09-07T12:07:19;100088.78;;;23.73;58.61
59055;BME280;44845;51.444;7.460;2023-09-07T12:09:45;100090.06;;;23.51;59.97
59055;BME280;44845;51.444;7.460;2023-09-07T12:12:10;100090.53;;;23.74;58.29
59055;BME280;44845;51.444;7.460;2023-09-07T12:14:36;100088.13;;;23.69;58.46
59055;BME280;44845;51.444;7.460;2023-09-07T12:17:01;100088.31;;;23.66;59.33
59055;BME280;44845;51.444;7.460;2023-09-07T12:19:26;100081.72;;;23.72;59.98
59055;BME280;44845;51.444;7.460;2023-09-07T12:21:52;100080.47;;;23.63;59.71
59055;BME280;44845;51.444;7.460;2023-09-07T12:24:17;100074.41;;;23.90;58.18
59055;BME280;44845;51.444;7.460;2023-09-07T12:26:43;100067.13;;;23.92;59.03
59055;BME280;44845;51.444;7.460;2023-09-07T12:29:08;100059.72;;;24.27;57.73
59055;BME280;44845;51.444;7.460;2023-09-07T12:31:33;100063.13;;;24.14;58.08
59055;BME280;44845;51.444;7.460;2023-09-07T12:33:58;100063.38;;;24.40;55.51
59055;BME280;44845;51.444;7.460;2023-09-07T12:36:24;100056.72;;;24.46;54.51
59055;BME280;44845;51.444;7.460;2023-09-07T12:38:49;100061.06;;;24.34;56.14
59055;BME280;44845;51.444;7.460;2023-09-07T12:41:15;100052.25;;;24.47;55.39
59055;BME280;44845;51.444;7.460;2023-09-07T12:43:41;100059.97;;;24.51;56.25
59055;BME280;44845;51.444;7.460;2023-09-07T12:46:08;100052.25;;;24.47;55.30
59055;BME280;44845;51.444;7.460;2023-09-07T12:48:33;100054.00;;;24.33;55.74
59055;BME280;44845;51.444;7.460;2023-09-07T12:50:59;100047.03;;;24.58;54.52
59055;BME280;44845;51.444;7.460;2023-09-07T12:53:24;100043.47;;;24.30;55.55
59055;BME280;44845;51.444;7.460;2023-09-07T12:55:52;100045.44;;;24.26;55.35
59055;BME280;44845;51.444;7.460;2023-09-07T12:58:17;100039.41;;;24.08;57.03
59055;BME280;44845;51.444;7.460;2023-09-07T13:00:42;100034.81;;;24.25;56.18
59055;BME280;44845;51.444;7.460;2023-09-07T13:03:08;100036.47;;;24.42;57.01
59055;BME280;44845;51.444;7.460;2023-09-07T13:05:33;100028.47;;;24.70;57.79
59055;BME280;44845;51.444;7.460;2023-09-07T13:07:58;100038.06;;;24.59;56.03
59055;BME280;44845;51.444;7.460;2023-09-07T13:10:27;100026.69;;;24.83;54.86
59055;BME280;44845;51.444;7.460;2023-09-07T13:12:53;100020.38;;;24.84;54.07
59055;BME280;44845;51.444;7.460;2023-09-07T13:15:18;100019.09;;;24.90;55.17
59055;BME280;44845;51.444;7.460;2023-09-07T13:17:43;100023.63;;;24.90;55.09
59055;BME280;44845;51.444;7.460;2023-09-07T13:20:09;100014.09;;;24.71;54.46
59055;BME280;44845;51.444;7.460;2023-09-07T13:22:34;100015.63;;;24.75;55.72